Kloten, North Dakota
Current Conditions -  °F | °C
As of 12:58 AM on Friday 19 Dec 2014 (Local Time) from KRDR Reporting Station
Overcast Overcast  
Wind Chill:   Ceiling: 900
Heat Index: 20°   Visibility: 10mi
Dew Point: 20°   Wind: 10mph
Humidity: 99%   Direction: 150°SSE
Pressure: 30.11"   Gusts: NA
Location:  47.8026°N, 98.1398°W
Report Text: KRDR 190658Z AUTO 15009KT 10SM OVC009 M06/M07 A3011 RMK AO2 SLPNO T10651066
Loading
Personal Weather Stations






























Interactive Weather Map New forecast layout! Learn more

10-Day Weather Forecast

Advertisements
Track Severe Weather on mobile